Latest Weather Observations for Bushy Park

IDT60801

Issued at 9:01 am EST Saturday 5 September 2015 (issued every 30 minutes, with the page automatically refreshed every 10 minutes)

About weather observations | Map of weather stations | Latest weather observations for TAS | Other Formats
Station Details ID: 095003 Name: BUSHY PARK (BUSHY PARK ESTATES) Lat: -42.71 Lon: 146.90 Height: 27.0 m
Data from the previous 72 hours. | See also: Recent months at Bushy Park
Date/Time
EST
Temp
°C
App
Temp
°C
Dew
Point
Rel
Hum
%
Delta-T
°C
Wind Press
QNH
hPa
Press
MSL
hPa
Rain
since 9 am
mm
Dir
 
Spd
km/h
Gust
km/h
Spd
kts
Gust
kts
05/09:00am 9.9 7.3 3.0 62 3.0 E 6 7 3 4 - - 0.0
05/08:30am 8.2 5.3 2.8 69 2.3 SW 7 11 4 6 - - 0.0
05/08:00am 6.5 4.6 2.7 77 1.6 N 2 9 1 5 - - 0.0
05/07:30am 4.9 1.9 2.2 83 1.1 SSE 7 11 4 6 - - 0.0
05/07:00am 4.6 1.5 1.3 79 1.3 SSW 7 11 4 6 - - 0.0
05/06:30am 6.7 3.0 2.4 74 1.8 WSW 11 19 6 10 - - 0.0
05/06:00am 6.3 2.9 1.6 72 1.9 WNW 9 15 5 8 - - 0.0
05/05:30am 5.7 2.3 1.8 76 1.6 E 9 13 5 7 - - 0.0
05/05:00am 4.7 1.3 1.7 81 1.2 WSW 9 15 5 8 - - 0.0
05/04:30am 5.7 2.7 2.3 79 1.4 SSW 7 11 4 6 - - 0.0
05/04:00am 7.4 4.2 2.9 73 1.9 SSW 9 13 5 7 - - 0.0
05/03:30am 8.2 3.5 3.1 70 2.2 WSW 17 30 9 16 - - 0.0
05/03:00am 8.8 3.8 3.5 69 2.3 WSW 19 32 10 17 - - 0.0
05/02:30am 8.9 5.2 4.7 75 1.9 W 13 17 7 9 - - 0.0
05/02:00am 6.4 4.1 4.6 88 0.8 NW 6 15 3 8 - - 0.0
05/01:30am 7.0 4.3 5.4 89 0.7 SSW 9 11 5 6 - - 0.0
05/01:00am 7.2 4.3 4.7 84 1.1 W 9 13 5 7 - - 0.0
05/12:30am 6.2 3.8 4.1 86 0.9 W 6 9 3 5 - - 0.0
05/12:00am 4.9 3.1 3.5 91 0.6 N 2 9 1 5 - - 0.0
 
Date/Time
EST
Temp
°C
App
Temp
°C
Dew
Point
Rel
Hum
%
Delta-T
°C
Wind Press
QNH
hPa
Press
MSL
hPa
Rain
since 9 am
mm
Dir
 
Spd
km/h
Gust
km/h
Spd
kts
Gust
kts
04/11:30pm 5.9 2.8 3.8 86 0.9 NNW 9 11 5 6 - - 0.0
04/11:00pm 7.0 3.6 4.0 81 1.3 N 11 15 6 8 - - 0.0
04/10:30pm 8.6 5.6 4.3 74 1.9 NW 9 22 5 12 - - 0.0
04/10:00pm 8.8 5.5 4.5 74 1.9 WNW 11 19 6 10 - - 0.0
04/09:30pm 9.1 5.0 4.6 73 2.0 WNW 15 26 8 14 - - 0.0
04/09:00pm 9.1 4.7 4.6 73 2.0 W 17 35 9 19 - - 0.0
04/08:30pm 9.2 5.1 4.3 71 2.2 WNW 15 28 8 15 - - 0.0
04/08:00pm 10.1 4.5 3.5 63 2.9 W 22 39 12 21 - - 0.0
04/07:30pm 10.0 4.7 3.1 62 3.0 WNW 20 33 11 18 - - 0.0
04/07:00pm 10.1 4.9 3.5 63 2.9 WNW 20 37 11 20 - - 0.0
04/06:30pm 10.2 4.3 3.9 65 2.8 NW 24 37 13 20 - - 0.0
04/06:00pm 10.5 5.3 3.5 62 3.1 W 20 39 11 21 - - 0.0
04/05:30pm 10.7 5.4 3.2 60 3.3 WNW 20 37 11 20 - - 0.0
04/05:00pm 11.5 5.5 3.4 57 3.6 W 24 41 13 22 - - 0.0
04/04:52pm 11.7 5.0 3.4 56 3.7 W 28 52 15 28 - - 0.0
04/04:30pm 12.5 7.5 4.5 58 3.6 W 20 43 11 23 - - 0.0
04/04:00pm 12.5 7.5 4.5 58 3.6 W 20 41 11 22 - - 0.0
04/03:30pm 14.0 8.8 3.8 50 4.6 W 20 41 11 22 - - 0.0
04/03:00pm 14.0 8.9 4.0 51 4.6 W 20 37 11 20 - - 0.0
04/02:30pm 15.0 9.9 4.0 47 5.1 W 20 35 11 19 - - 0.0
04/02:00pm 12.9 7.7 3.6 53 4.2 W 20 44 11 24 - - 0.0
04/01:30pm 12.5 6.8 3.1 52 4.2 W 22 33 12 18 - - 0.0
04/01:00pm 12.9 7.2 2.8 50 4.5 WNW 22 37 12 20 - - 0.0
04/12:30pm 13.7 7.6 2.5 46 4.9 WNW 24 39 13 21 - - 0.0
04/12:00pm 13.5 8.2 3.1 49 4.6 NNW 20 39 11 21 - - 0.0
04/11:30am 13.6 8.3 3.2 49 4.7 WNW 20 33 11 18 - - 0.0
04/11:00am 13.5 8.4 2.8 48 4.7 WNW 19 32 10 17 - - 0.0
04/10:30am 13.1 8.5 3.6 52 4.3 WNW 17 26 9 14 - - 0.0
04/10:00am 10.7 6.8 3.2 60 3.3 NNE 13 26 7 14 - - 0.0
04/09:30am 9.7 4.6 2.8 62 3.0 N 19 28 10 15 - - 0.0
04/09:00am 8.8 3.7 3.0 67 2.5 N 19 26 10 14 - - 0.2
04/08:30am 8.1 2.2 1.9 65 2.6 N 22 33 12 18 - - 0.2
04/08:00am 6.6 2.7 0.9 67 2.3 N 11 20 6 11 - - 0.2
04/07:30am 4.8 2.1 0.4 73 1.7 N 4 7 2 4 - - 0.2
04/07:00am 3.3 -0.4 -0.2 78 1.3 N 9 15 5 8 - - 0.2
04/06:30am 2.3 -0.9 -0.7 80 1.1 NE 6 11 3 6 - - 0.2
04/06:00am 2.1 -2.1 -0.6 82 1.0 W 11 19 6 10 - - 0.2
04/05:30am 1.4 -1.9 -1.1 83 0.9 W 6 9 3 5 - - 0.2
04/05:00am 1.4 -2.4 -1.1 83 0.9 N 9 15 5 8 - - 0.2
04/04:30am 0.9 - - - - S 6 9 3 5 - - 0.2
04/04:00am -0.2 - - - - N 4 15 2 8 - - 0.2
04/03:30am 0.1 - - - - NNE 7 11 4 6 - - 0.2
04/03:00am 0.1 - - - - S 7 11 4 6 - - 0.2
04/02:30am 0.0 - - - - SSW 7 11 4 6 - - 0.2
04/02:00am -0.1 - - - - NNE 6 9 3 5 - - 0.2
04/01:30am 0.0 - - - - NE 2 9 1 5 - - 0.2
04/01:00am 0.3 - - - - NNW 4 7 2 4 - - 0.2
04/12:30am 0.6 - - - - CALM 0 0 0 0 - - 0.2
04/12:00am 1.1 -1.0 -0.6 88 0.6 CALM 0 11 0 6 - - 0.2
 
Date/Time
EST
Temp
°C
App
Temp
°C
Dew
Point
Rel
Hum
%
Delta-T
°C
Wind Press
QNH
hPa
Press
MSL
hPa
Rain
since 9 am
mm
Dir
 
Spd
km/h
Gust
km/h
Spd
kts
Gust
kts
03/11:30pm 1.3 -1.5 -0.3 89 0.6 S 4 7 2 4 - - 0.2
03/11:00pm 1.6 -0.8 0.0 89 0.6 N 2 7 1 4 - - 0.2
03/10:30pm 1.8 -1.4 -0.4 85 0.8 SW 6 9 3 5 - - 0.2
03/10:00pm 2.0 0.0 -0.4 84 0.9 CALM 0 0 0 0 - - 0.2
03/09:30pm 2.7 0.7 -0.3 81 1.1 CALM 0 4 0 2 - - 0.2
03/09:00pm 3.3 0.0 0.4 81 1.1 N 7 9 4 5 - - 0.2
03/08:30pm 4.1 0.8 0.2 76 1.5 N 7 7 4 4 - - 0.2
03/08:00pm 6.2 2.8 -0.6 62 2.6 WSW 7 13 4 7 - - 0.2
03/07:30pm 5.9 3.5 -0.3 64 2.4 NE 2 7 1 4 - - 0.2
03/07:00pm 6.1 2.0 -0.4 63 2.5 SSW 11 15 6 8 - - 0.2
03/06:30pm 6.8 3.1 -0.1 61 2.7 SW 9 13 5 7 - - 0.2
03/06:00pm 8.1 3.6 -0.2 56 3.3 SW 13 22 7 12 - - 0.2
03/05:30pm 9.4 4.8 -0.7 49 4.0 SW 13 20 7 11 - - 0.2
03/05:00pm 10.5 4.6 -2.1 41 4.8 WSW 19 28 10 15 - - 0.2
03/04:30pm 11.3 6.5 -2.3 38 5.3 WSW 13 22 7 12 - - 0.2
03/04:00pm 11.9 6.7 -2.7 36 5.6 W 15 26 8 14 - - 0.2
03/03:30pm 12.6 8.0 -1.2 38 5.5 W 13 24 7 13 - - 0.2
03/03:00pm 12.2 7.3 -0.8 40 5.2 W 15 22 8 12 - - 0.2
03/02:30pm 13.0 8.5 -0.2 40 5.4 W 13 22 7 12 - - 0.2
03/02:00pm 12.7 8.5 -0.7 39 5.5 S 11 19 6 10 - - 0.0
03/01:30pm 12.0 7.7 -1.8 38 5.4 S 11 17 6 9 - - 0.0
03/01:00pm 12.1 7.8 -1.7 38 5.5 SSW 11 24 6 13 - - 0.0
03/12:30pm 12.4 7.5 -0.5 41 5.3 S 15 22 8 12 - - 0.0
03/12:00pm 12.2 8.0 1.5 48 4.6 S 13 22 7 12 - - 0.0
03/11:30am 10.7 4.9 2.4 56 3.6 SSW 22 30 12 16 - - 0.0
03/11:00am 11.0 5.8 3.6 60 3.3 SW 20 37 11 20 - - 0.0
03/10:30am 11.6 7.5 2.1 52 4.1 W 13 26 7 14 - - 0.0
03/10:00am 10.6 6.9 2.2 56 3.6 E 11 22 6 12 - - 0.0
03/09:30am 11.0 7.8 3.0 58 3.5 ESE 9 15 5 8 - - 0.0
03/09:00am 9.4 5.6 3.7 67 2.5 SSE 13 24 7 13 - - 0.0
03/08:30am 7.8 5.5 5.6 86 1.0 E 7 15 4 8 - - 0.0
03/08:00am 6.7 5.3 5.4 91 0.6 N 2 9 1 5 - - 0.0
03/07:30am 5.4 1.7 4.5 94 0.4 SW 13 17 7 9 - - 0.0
03/07:00am 5.3 4.1 4.4 94 0.4 CALM 0 0 0 0 - - 0.0
03/06:30am 6.1 4.7 5.4 95 0.3 N 2 7 1 4 - - 0.0
03/06:00am 6.6 5.6 5.7 94 0.4 CALM 0 0 0 0 - - 0.0
03/05:30am 7.6 5.7 6.5 93 0.5 SW 6 7 3 4 - - 0.0
03/05:00am 7.4 5.3 6.8 96 0.3 SSE 7 9 4 5 - - 0.0
03/04:30am 7.4 4.9 6.5 94 0.4 SSW 9 11 5 6 - - 0.0
03/04:00am 7.7 5.6 6.8 94 0.4 NNE 7 9 4 5 - - 0.0
03/03:30am 7.7 5.6 6.6 93 0.5 NE 7 9 4 5 - - 0.0
03/03:00am 7.3 5.1 6.2 93 0.5 W 7 9 4 5 - - 0.0
03/02:30am 6.9 4.8 6.0 94 0.4 WSW 6 11 3 6 - - 0.0
03/02:00am 6.3 5.3 5.6 95 0.3 CALM 0 0 0 0 - - 0.0
03/01:30am 7.2 6.0 6.3 94 0.4 NNE 2 7 1 4 - - 0.0
03/01:00am 7.3 6.5 6.4 94 0.4 CALM 0 0 0 0 - - 0.0
03/12:30am 7.5 6.7 6.4 93 0.5 CALM 0 0 0 0 - - 0.0
03/12:00am 7.6 6.8 6.7 94 0.4 CALM 0 9 0 5 - - 0.0
 
Date/Time
EST
Temp
°C
App
Temp
°C
Dew
Point
Rel
Hum
%
Delta-T
°C
Wind Press
QNH
hPa
Press
MSL
hPa
Rain
since 9 am
mm
Dir
 
Spd
km/h
Gust
km/h
Spd
kts
Gust
kts
02/11:30pm 7.7 7.0 6.8 94 0.4 CALM 0 0 0 0 - - 0.0
02/11:00pm 7.8 7.0 6.5 91 0.6 CALM 0 6 0 3 - - 0.0
02/10:30pm 8.1 7.3 6.6 90 0.7 CALM 0 7 0 4 - - 0.0
02/10:00pm 8.3 7.5 6.6 89 0.8 CALM 0 0 0 0 - - 0.0
02/09:30pm 8.6 7.7 6.2 85 1.1 CALM 0 0 0 0 - - 0.0
02/09:00pm 8.9 6.7 6.1 82 1.3 SSE 7 9 4 5 - - 0.0
02/08:30pm 8.8 6.3 6.4 85 1.1 SSE 9 11 5 6 - - 0.0
02/08:00pm 8.8 8.0 6.7 87 1.0 CALM 0 0 0 0 - - 0.0
02/07:30pm 8.8 8.0 6.7 87 1.0 CALM 0 0 0 0 - - 0.0
02/07:00pm 8.9 8.1 6.5 85 1.1 CALM 0 0 0 0 - - 0.0
02/06:30pm 9.4 8.6 6.6 83 1.3 CALM 0 0 0 0 - - 0.0
02/06:00pm 9.6 8.5 7.1 84 1.2 SE 2 7 1 4 - - 0.0
02/05:30pm 11.0 10.2 6.4 73 2.2 CALM 0 0 0 0 - - 0.0
02/05:00pm 11.7 10.0 6.0 68 2.7 NW 4 7 2 4 - - 0.0
02/04:30pm 12.3 10.5 5.2 62 3.3 NNE 4 9 2 5 - - 0.0
02/04:00pm 12.4 10.0 4.1 57 3.7 WSW 6 7 3 4 - - 0.0
02/03:30pm 11.8 9.1 5.4 65 3.0 WSW 9 11 5 6 - - 0.0
02/03:00pm 12.1 9.6 4.7 60 3.4 WSW 7 9 4 5 - - 0.0
02/02:30pm 12.2 9.7 3.5 55 3.9 SSW 6 9 3 5 - - 0.0
02/02:00pm 12.5 10.1 4.2 57 3.8 N 6 13 3 7 - - 0.0
02/01:30pm 12.1 9.0 3.7 56 3.8 NNE 9 13 5 7 - - 0.0
02/01:00pm 12.4 9.4 4.3 57 3.7 N 9 15 5 8 - - 0.0
02/12:30pm 11.4 8.7 3.6 58 3.5 NE 7 13 4 7 - - 0.0
02/12:00pm 10.7 8.1 4.0 63 3.0 NNE 7 13 4 7 - - 0.0
02/11:30am 10.0 6.9 3.7 65 2.8 NNE 9 13 5 7 - - 0.0
02/11:00am 8.9 6.7 3.4 68 2.4 E 4 7 2 4 - - 0.0
02/10:30am 9.3 6.1 3.3 66 2.6 N 9 13 5 7 - - 0.0
02/10:00am 8.0 4.4 3.1 71 2.1 NNE 11 15 6 8 - - 0.0
02/09:30am 7.0 4.4 4.3 83 1.2 NNW 7 9 4 5 - - 0.0

Other Formats:

Comma delimited format used in spreadsheet applications
http://www.bom.gov.au/fwo/IDT60801/IDT60801.94964.axf

JavaScript Object Notation format (JSON) in row-major order
http://www.bom.gov.au/fwo/IDT60801/IDT60801.94964.json